Time;durP1;ratioP1;P1;durP2;ratioP2;P2;SDS_P1;SDS_P2;PMS_P1;PMS_P2;Temp;Humidity;BMP_temperature;BMP_pressure;BME280_temperature;BME280_humidity;BME280_pressure;Samples;Min_cycle;Max_cycle;Signal;HPM_P1;HPM_P2
2021/09/19 00:02:09;;;;;;;;;16.67;16.67;22.90;41.80;;;;;;5034156;28;8824;-63
2021/09/19 00:04:35;;;;;;;;;17.00;17.00;22.90;41.60;;;;;;5033916;28;8875;-63
2021/09/19 00:07:03;;;;;;;;;14.67;14.67;23.00;41.70;;;;;;5034405;28;8929;-63
2021/09/19 00:09:28;;;;;;;;;16.33;16.33;22.90;41.90;;;;;;5034161;28;8807;-63
2021/09/19 00:11:54;;;;;;;;;14.67;14.67;22.90;41.80;;;;;;5034174;28;8790;-63
2021/09/19 00:14:20;;;;;;;;;14.33;14.33;22.90;42.90;;;;;;5034379;28;8789;-63
2021/09/19 00:16:48;;;;;;;;;17.00;17.00;22.90;41.90;;;;;;5034360;28;8781;-64
2021/09/19 00:19:14;;;;;;;;;16.67;16.67;22.90;41.70;;;;;;5034285;28;8781;-63
2021/09/19 00:21:40;;;;;;;;;16.00;16.00;22.90;41.90;;;;;;5034214;28;9415;-63
2021/09/19 00:24:06;;;;;;;;;18.00;18.00;22.90;41.80;;;;;;5033817;28;8817;-64
2021/09/19 00:26:32;;;;;;;;;17.00;17.00;22.80;41.80;;;;;;5034002;28;8879;-64
2021/09/19 00:28:58;;;;;;;;;16.67;16.67;22.80;42.00;;;;;;5034238;28;8816;-63
2021/09/19 00:31:23;;;;;;;;;16.00;16.00;22.80;41.90;;;;;;5034208;28;8773;-63
2021/09/19 00:33:49;;;;;;;;;18.00;18.00;22.80;42.00;;;;;;5034013;28;9431;-63
2021/09/19 00:36:15;;;;;;;;;16.00;16.00;22.80;41.90;;;;;;5034020;28;8778;-63
2021/09/19 00:38:41;;;;;;;;;15.67;15.67;22.90;41.90;;;;;;5034006;28;8820;-63
2021/09/19 00:41:07;;;;;;;;;15.00;15.00;22.90;41.70;;;;;;5033897;28;8774;-63
2021/09/19 00:43:32;;;;;;;;;12.00;12.00;22.80;41.40;;;;;;5033800;28;8964;-64
2021/09/19 00:45:58;;;;;;;;;9.33;9.33;22.90;41.20;;;;;;5033839;28;8762;-64
2021/09/19 00:48:24;;;;;;;;;12.33;12.33;22.90;41.00;;;;;;5033620;28;8777;-64
2021/09/19 00:50:50;;;;;;;;;11.33;11.33;22.90;40.70;;;;;;5034054;28;8847;-64
2021/09/19 00:53:16;;;;;;;;;10.33;10.33;22.90;40.30;;;;;;5033491;28;8852;-63
2021/09/19 00:55:43;;;;;;;;;10.33;10.33;22.80;40.40;;;;;;5035252;28;8793;-64
2021/09/19 00:58:11;;;;;;;;;12.33;12.33;22.80;40.40;;;;;;5037280;28;8777;-64
2021/09/19 01:00:39;;;;;;;;;10.33;10.33;22.80;40.60;;;;;;5037405;28;8753;-64
2021/09/19 01:03:05;;;;;;;;;10.33;10.33;22.90;40.40;;;;;;5037055;28;8801;-64
2021/09/19 01:05:31;;;;;;;;;9.00;9.00;22.90;40.30;;;;;;5037265;28;8800;-63
2021/09/19 01:07:58;;;;;;;;;10.67;10.67;23.00;40.20;;;;;;5037240;28;8847;-64
2021/09/19 01:10:26;;;;;;;;;13.33;13.33;23.00;40.20;;;;;;5035771;28;8834;-63
2021/09/19 01:12:54;;;;;;;;;11.33;11.33;23.10;40.20;;;;;;5037131;28;8881;-63
2021/09/19 01:15:21;;;;;;;;;12.33;12.33;23.10;40.20;;;;;;5037363;28;8758;-64
2021/09/19 01:17:47;;;;;;;;;12.00;12.00;23.10;40.20;;;;;;5036973;28;8927;-63
2021/09/19 01:20:15;;;;;;;;;13.67;13.67;23.10;40.30;;;;;;5037011;28;8769;-64
2021/09/19 01:22:56;;;;;;;;;12.00;12.00;23.00;40.50;;;;;;5035880;28;8997;-63
2021/09/19 01:25:22;;;;;;;;;11.33;11.33;23.10;40.70;;;;;;5032477;28;8872;-63
2021/09/19 01:27:48;;;;;;;;;11.33;11.33;23.10;40.80;;;;;;5036886;28;8778;-64
2021/09/19 01:30:14;;;;;;;;;11.67;11.67;23.10;41.00;;;;;;5036894;28;8766;-64
2021/09/19 01:32:41;;;;;;;;;12.67;12.67;23.00;41.30;;;;;;5037099;28;8770;-63
2021/09/19 01:35:08;;;;;;;;;15.33;15.33;23.10;41.50;;;;;;5037097;28;8801;-64
2021/09/19 01:37:34;;;;;;;;;14.00;14.00;23.00;41.60;;;;;;5041156;28;8779;-64
2021/09/19 01:40:00;;;;;;;;;16.00;16.00;22.90;41.90;;;;;;5048660;28;9012;-64
2021/09/19 01:42:27;;;;;;;;;18.33;17.67;22.80;42.10;;;;;;5056759;28;8815;-64
2021/09/19 01:44:53;;;;;;;;;21.33;21.33;22.80;42.40;;;;;;5056497;28;8771;-64
2021/09/19 01:47:19;;;;;;;;;19.33;19.33;22.80;42.70;;;;;;5047896;28;8788;-64
2021/09/19 01:49:49;;;;;;;;;23.67;23.67;22.90;42.90;;;;;;5041419;28;8774;-64
2021/09/19 01:52:20;;;;;;;;;17.33;17.33;22.80;42.90;;;;;;5036706;28;8788;-65
2021/09/19 01:54:46;;;;;;;;;18.67;18.67;22.90;43.10;;;;;;5035889;28;8793;-64
2021/09/19 01:57:22;;;;;;;;;23.00;23.00;22.80;43.10;;;;;;5032636;28;8796;-64
2021/09/19 01:59:51;;;;;;;;;22.67;22.67;22.70;43.50;;;;;;5016724;28;8776;-64
2021/09/19 02:02:17;;;;;;;;;20.33;20.33;22.70;43.60;;;;;;5016404;28;8800;-64
2021/09/19 02:04:44;;;;;;;;;18.00;18.00;22.60;43.90;;;;;;5016402;28;8833;-64
2021/09/19 02:07:10;;;;;;;;;21.33;21.33;22.50;43.90;;;;;;5017390;28;8760;-63
2021/09/19 02:09:36;;;;;;;;;18.00;18.00;22.50;44.20;;;;;;5050701;28;9510;-64
2021/09/19 02:12:02;;;;;;;;;22.33;22.33;22.40;44.30;;;;;;5052097;28;8783;-64
2021/09/19 02:14:28;;;;;;;;;17.67;17.67;22.50;44.30;;;;;;5055949;28;8763;-64
2021/09/19 02:16:54;;;;;;;;;20.67;20.67;22.40;44.40;;;;;;5055922;28;8801;-64
2021/09/19 02:19:19;;;;;;;;;19.33;19.33;22.50;44.30;;;;;;5047961;28;8848;-64
2021/09/19 02:21:46;;;;;;;;;18.00;18.00;22.60;44.10;;;;;;5055840;28;8787;-64
2021/09/19 02:24:12;;;;;;;;;20.33;20.33;22.60;43.80;;;;;;5046434;28;8882;-64
2021/09/19 02:26:38;;;;;;;;;23.00;23.00;22.50;43.80;;;;;;5035886;28;8795;-63
2021/09/19 02:29:04;;;;;;;;;24.67;24.33;22.60;43.80;;;;;;5042749;28;8803;-64
2021/09/19 02:31:31;;;;;;;;;18.67;18.67;22.60;44.10;;;;;;5055612;28;8905;-64
2021/09/19 02:33:58;;;;;;;;;22.33;22.33;22.40;44.20;;;;;;5055724;28;8823;-64
2021/09/19 02:36:24;;;;;;;;;21.00;21.00;22.40;44.40;;;;;;5055620;28;8801;-64
2021/09/19 02:38:50;;;;;;;;;24.00;24.00;22.50;44.60;;;;;;5050162;28;9464;-63
2021/09/19 02:41:16;;;;;;;;;22.67;22.67;22.40;44.60;;;;;;5047431;28;8853;-64
2021/09/19 02:43:41;;;;;;;;;20.00;20.00;22.40;44.80;;;;;;5055518;28;8876;-64
2021/09/19 02:46:07;;;;;;;;;22.00;22.00;22.40;44.80;;;;;;5055423;28;8873;-64
2021/09/19 02:48:33;;;;;;;;;23.33;23.33;22.40;44.80;;;;;;5047952;28;8894;-64
2021/09/19 02:51:02;;;;;;;;;21.00;21.00;22.40;44.90;;;;;;5055337;28;8857;-64
2021/09/19 02:53:28;;;;;;;;;20.67;20.67;22.40;45.00;;;;;;5051888;28;8778;-65
2021/09/19 02:55:54;;;;;;;;;19.00;19.00;22.20;45.10;;;;;;5035247;28;8786;-64
2021/09/19 02:58:19;;;;;;;;;22.67;22.67;22.10;45.50;;;;;;5031594;28;8811;-63
2021/09/19 03:00:45;;;;;;;;;21.00;21.00;22.00;46.00;;;;;;5055376;28;8795;-65
2021/09/19 03:03:11;;;;;;;;;23.33;23.33;22.00;46.00;;;;;;5055136;28;8830;-64
2021/09/19 03:05:37;;;;;;;;;24.00;22.67;22.10;45.90;;;;;;5054857;28;8895;-65
2021/09/19 03:08:03;;;;;;;;;24.00;24.00;22.00;46.00;;;;;;5052270;28;8775;-64
2021/09/19 03:10:30;;;;;;;;;24.33;24.33;22.10;46.00;;;;;;5034247;28;8830;-64
2021/09/19 03:12:56;;;;;;;;;25.00;25.00;22.10;45.90;;;;;;5054187;28;8798;-64
2021/09/19 03:15:22;;;;;;;;;22.67;22.67;21.90;46.10;;;;;;5054832;28;9399;-65
2021/09/19 03:17:48;;;;;;;;;22.67;22.67;22.00;46.10;;;;;;5054459;28;8839;-64
2021/09/19 03:20:16;;;;;;;;;20.33;20.33;22.00;46.00;;;;;;5046132;28;8860;-64
2021/09/19 03:22:43;;;;;;;;;21.00;21.00;22.00;46.10;;;;;;5054796;28;8822;-64
2021/09/19 03:25:10;;;;;;;;;24.00;24.00;21.90;46.10;;;;;;5037510;28;8758;-65
2021/09/19 03:27:37;;;;;;;;;21.33;21.33;21.90;46.00;;;;;;5032765;28;8790;-64
2021/09/19 03:30:05;;;;;;;;;19.67;19.67;21.90;46.10;;;;;;5041738;28;8790;-64
2021/09/19 03:32:31;;;;;;;;;21.33;21.33;21.80;46.20;;;;;;5054575;28;8840;-64
2021/09/19 03:34:57;;;;;;;;;22.33;21.67;21.80;46.50;;;;;;5054645;28;8823;-64
2021/09/19 03:37:22;;;;;;;;;24.00;24.00;21.80;46.70;;;;;;5054736;28;8777;-65
2021/09/19 03:39:48;;;;;;;;;19.00;19.00;21.80;47.70;;;;;;5043949;28;8841;-64
2021/09/19 03:42:14;;;;;;;;;15.00;15.00;21.70;46.90;;;;;;5052606;28;9468;-65
2021/09/19 03:44:40;;;;;;;;;25.00;25.00;21.70;46.90;;;;;;5054637;28;8810;-64
2021/09/19 03:47:06;;;;;;;;;24.33;24.33;21.60;47.40;;;;;;5054447;28;8771;-64
2021/09/19 03:49:31;;;;;;;;;25.00;25.00;21.50;47.50;;;;;;5040976;28;8818;-64
2021/09/19 03:51:57;;;;;;;;;24.00;23.67;21.50;47.70;;;;;;5054388;28;8763;-64
2021/09/19 03:54:23;;;;;;;;;22.00;22.00;21.40;47.70;;;;;;5045174;28;8974;-65
2021/09/19 03:56:49;;;;;;;;;22.00;22.00;21.50;47.80;;;;;;5054555;28;9515;-64
2021/09/19 03:59:14;;;;;;;;;24.00;24.00;21.40;48.90;;;;;;5045757;28;9437;-65
2021/09/19 04:01:40;;;;;;;;;24.00;24.00;21.50;47.80;;;;;;5054501;28;8763;-64
2021/09/19 04:04:06;;;;;;;;;23.67;23.67;21.50;47.80;;;;;;5054153;28;8882;-64
2021/09/19 04:06:32;;;;;;;;;21.33;21.33;21.40;47.70;;;;;;5054471;28;8787;-65
2021/09/19 04:08:57;;;;;;;;;23.67;23.67;21.40;47.80;;;;;;5052605;28;8798;-64
2021/09/19 04:11:23;;;;;;;;;22.00;22.00;21.20;48.30;;;;;;5047205;28;8767;-64
2021/09/19 04:13:49;;;;;;;;;24.00;24.00;21.20;48.50;;;;;;5054122;28;8771;-64
2021/09/19 04:16:15;;;;;;;;;23.00;23.00;21.10;49.00;;;;;;5054277;28;8786;-64
2021/09/19 04:18:40;;;;;;;;;25.00;25.00;21.10;49.10;;;;;;5054037;28;8778;-64
2021/09/19 04:21:06;;;;;;;;;23.00;23.00;21.30;48.80;;;;;;5045845;28;8771;-64
2021/09/19 04:23:32;;;;;;;;;27.67;27.67;21.30;48.30;;;;;;5052293;28;8892;-64
2021/09/19 04:25:58;;;;;;;;;25.00;25.00;21.30;48.20;;;;;;5038143;28;8773;-64
2021/09/19 04:28:23;;;;;;;;;29.33;29.33;21.30;48.20;;;;;;5043247;28;8775;-63
2021/09/19 04:30:49;;;;;;;;;25.67;25.67;21.40;48.20;;;;;;5049027;28;8795;-64
2021/09/19 04:33:15;;;;;;;;;27.00;27.00;21.40;48.30;;;;;;5057911;28;8922;-65
2021/09/19 04:35:41;;;;;;;;;24.00;24.00;21.40;48.40;;;;;;5057876;28;8795;-65
2021/09/19 04:38:06;;;;;;;;;31.67;30.33;21.30;48.50;;;;;;5058048;28;8791;-64
2021/09/19 04:40:32;;;;;;;;;23.00;23.00;21.30;48.70;;;;;;5043784;28;8770;-65
2021/09/19 04:42:58;;;;;;;;;23.00;23.00;21.30;48.70;;;;;;5050489;28;8813;-64
2021/09/19 04:45:24;;;;;;;;;28.00;27.67;21.30;49.80;;;;;;5037971;28;8773;-65
2021/09/19 04:47:50;;;;;;;;;29.33;29.33;21.20;49.00;;;;;;5037844;28;8781;-64
2021/09/19 04:50:15;;;;;;;;;27.67;27.67;21.30;48.90;;;;;;5037488;28;8802;-64
2021/09/19 04:52:41;;;;;;;;;21.33;21.33;21.30;48.70;;;;;;5057760;28;8858;-64
2021/09/19 04:55:08;;;;;;;;;24.33;24.33;21.40;48.40;;;;;;5040457;28;8817;-64
2021/09/19 04:57:34;;;;;;;;;27.33;27.33;21.30;48.50;;;;;;5037847;28;8777;-64
2021/09/19 04:59:59;;;;;;;;;26.67;26.67;21.40;48.40;;;;;;5033497;28;8814;-64
2021/09/19 05:02:25;;;;;;;;;19.00;19.00;21.40;48.20;;;;;;5057311;28;8823;-65
2021/09/19 05:04:51;;;;;;;;;23.33;23.33;21.50;48.20;;;;;;5057076;28;8854;-64
2021/09/19 05:07:17;;;;;;;;;24.00;24.00;21.50;48.10;;;;;;5057336;28;8787;-65
2021/09/19 05:09:42;;;;;;;;;22.00;22.00;21.50;48.10;;;;;;5048653;28;8784;-65
2021/09/19 05:12:09;;;;;;;;;27.00;27.00;21.60;48.00;;;;;;5057575;28;8892;-64
2021/09/19 05:14:34;;;;;;;;;30.00;30.00;21.50;48.10;;;;;;5057189;28;8786;-64
2021/09/19 05:17:00;;;;;;;;;25.33;24.67;21.50;48.10;;;;;;5057035;28;8779;-64
2021/09/19 05:19:26;;;;;;;;;28.33;28.33;21.60;47.80;;;;;;5048304;28;8817;-64
2021/09/19 05:21:51;;;;;;;;;24.33;24.33;21.50;48.20;;;;;;5057304;28;8843;-64
2021/09/19 05:24:17;;;;;;;;;26.33;26.33;21.50;48.20;;;;;;5047044;28;8804;-64
2021/09/19 05:26:43;;;;;;;;;22.00;22.00;21.50;48.10;;;;;;5036907;28;9400;-65
2021/09/19 05:29:09;;;;;;;;;23.33;23.33;21.50;47.80;;;;;;5036569;28;8775;-64
2021/09/19 05:31:35;;;;;;;;;24.00;24.00;21.50;47.80;;;;;;5057073;28;8818;-64
2021/09/19 05:34:03;;;;;;;;;29.00;29.00;21.40;47.70;;;;;;5056879;28;8826;-64
2021/09/19 05:36:29;;;;;;;;;23.67;23.67;21.50;47.80;;;;;;5056735;28;8770;-65
2021/09/19 05:38:55;;;;;;;;;26.67;26.67;21.60;47.60;;;;;;5047992;28;8803;-63
2021/09/19 05:41:21;;;;;;;;;25.67;25.67;21.60;47.40;;;;;;5056253;28;8893;-64
2021/09/19 05:43:47;;;;;;;;;22.00;22.00;21.70;47.20;;;;;;5056482;28;8854;-64
2021/09/19 05:46:13;;;;;;;;;22.33;22.33;21.70;47.10;;;;;;5056816;28;8786;-64
2021/09/19 05:48:39;;;;;;;;;23.33;23.33;21.70;46.80;;;;;;5049652;28;8805;-65
2021/09/19 05:51:05;;;;;;;;;25.00;25.00;21.80;46.80;;;;;;5050603;28;9444;-64
2021/09/19 05:53:31;;;;;;;;;26.00;26.00;21.80;46.70;;;;;;5052863;28;8769;-65
2021/09/19 05:55:56;;;;;;;;;29.33;29.33;21.70;47.00;;;;;;5036590;28;8846;-65
2021/09/19 05:58:22;;;;;;;;;27.00;27.00;21.80;47.20;;;;;;5036321;28;8766;-65
2021/09/19 06:00:48;;;;;;;;;23.33;23.33;21.80;46.90;;;;;;5045336;28;8880;-65
2021/09/19 06:03:14;;;;;;;;;24.67;24.67;21.70;47.10;;;;;;5056347;28;8849;-64
2021/09/19 06:05:40;;;;;;;;;28.67;28.67;21.80;47.00;;;;;;5055919;28;8814;-65
2021/09/19 06:08:06;;;;;;;;;24.00;24.00;21.80;46.90;;;;;;5056398;28;8782;-65
2021/09/19 06:10:32;;;;;;;;;28.00;27.67;21.80;47.00;;;;;;5047632;28;8881;-66
2021/09/19 06:12:58;;;;;;;;;26.00;26.00;21.70;47.40;;;;;;5056116;28;8783;-65
2021/09/19 06:15:23;;;;;;;;;30.67;30.67;21.80;47.30;;;;;;5056056;28;8786;-66
2021/09/19 06:17:49;;;;;;;;;27.00;27.00;21.70;47.40;;;;;;5056221;28;8816;-65
2021/09/19 06:20:15;;;;;;;;;29.00;29.00;21.90;47.30;;;;;;5047232;28;9401;-66
2021/09/19 06:22:41;;;;;;;;;29.00;29.00;21.90;47.20;;;;;;5055699;28;8806;-66
2021/09/19 06:25:07;;;;;;;;;30.33;28.67;21.90;47.10;;;;;;5038748;28;8769;-66
2021/09/19 06:27:33;;;;;;;;;26.67;26.67;22.00;47.20;;;;;;5035872;28;8796;-66
2021/09/19 06:29:58;;;;;;;;;28.67;28.67;22.00;47.00;;;;;;5035957;28;8783;-66
2021/09/19 06:32:24;;;;;;;;;28.33;28.33;22.00;46.80;;;;;;5055815;28;8841;-66
2021/09/19 06:34:50;;;;;;;;;22.67;22.67;21.90;47.00;;;;;;5056014;28;8823;-66
2021/09/19 06:37:16;;;;;;;;;28.00;27.00;22.00;47.20;;;;;;5055592;28;8930;-65
2021/09/19 06:39:42;;;;;;;;;27.67;27.67;22.00;47.30;;;;;;5046877;28;8787;-65
2021/09/19 06:42:07;;;;;;;;;28.67;28.67;22.10;47.30;;;;;;5036388;28;8801;-65
2021/09/19 06:44:33;;;;;;;;;26.00;24.67;22.10;47.20;;;;;;5035492;28;8863;-65
2021/09/19 06:46:59;;;;;;;;;30.00;30.00;22.10;47.00;;;;;;5035493;28;8758;-64
2021/09/19 06:49:25;;;;;;;;;24.00;24.00;22.20;46.90;;;;;;5032047;28;8784;-64
2021/09/19 06:51:53;;;;;;;;;25.67;25.67;22.20;46.70;;;;;;5015460;28;8812;-64
2021/09/19 06:54:19;;;;;;;;;24.00;24.00;22.30;46.70;;;;;;5024615;28;8792;-64
2021/09/19 06:56:47;;;;;;;;;28.00;28.00;22.40;46.70;;;;;;5035208;28;8792;-64
2021/09/19 06:59:13;;;;;;;;;23.67;23.67;22.40;46.30;;;;;;5033952;28;8793;-62
2021/09/19 07:01:39;;;;;;;;;24.67;24.67;22.50;46.20;;;;;;5015422;28;8760;-63
2021/09/19 07:04:05;;;;;;;;;23.67;23.67;22.50;45.90;;;;;;5015244;28;8953;-63
2021/09/19 07:06:31;;;;;;;;;25.33;25.00;22.60;45.80;;;;;;5015324;28;8778;-63
2021/09/19 07:08:57;;;;;;;;;25.00;25.00;22.70;45.90;;;;;;5020237;28;8772;-63
2021/09/19 07:11:23;;;;;;;;;22.33;22.33;22.80;45.50;;;;;;5054894;28;8771;-63
2021/09/19 07:13:49;;;;;;;;;21.33;21.33;22.80;44.90;;;;;;5055153;28;8773;-63
2021/09/19 07:16:15;;;;;;;;;23.00;23.00;22.80;44.00;;;;;;5055161;28;8849;-65
2021/09/19 07:18:42;;;;;;;;;21.00;21.00;22.80;43.90;;;;;;5048502;28;9407;-64
2021/09/19 07:21:08;;;;;;;;;23.00;22.00;22.80;44.30;;;;;;5053134;28;8771;-63
2021/09/19 07:23:34;;;;;;;;;23.00;23.00;22.90;44.40;;;;;;5050565;28;8883;-64
2021/09/19 07:26:00;;;;;;;;;22.33;22.00;23.00;44.40;;;;;;5035098;28;8777;-64
2021/09/19 07:28:27;;;;;;;;;21.33;21.33;22.90;44.10;;;;;;5034937;28;8892;-64
2021/09/19 07:30:54;;;;;;;;;22.33;22.33;23.00;44.10;;;;;;5046431;28;8898;-65
2021/09/19 07:33:23;;;;;;;;;23.33;23.33;22.80;43.90;;;;;;5054652;28;8810;-67
2021/09/19 07:35:50;;;;;;;;;20.67;20.67;22.90;44.20;;;;;;5054561;28;8798;-67
2021/09/19 07:38:19;;;;;;;;;27.00;27.00;22.90;43.90;;;;;;5046776;28;9548;-66
2021/09/19 07:40:46;;;;;;;;;24.33;24.33;23.10;43.20;;;;;;5034352;28;8778;-64
2021/09/19 07:43:12;;;;;;;;;21.00;21.00;23.20;43.20;;;;;;5034356;28;8821;-66
2021/09/19 07:45:38;;;;;;;;;20.67;20.67;23.30;43.70;;;;;;5034344;28;8769;-65
2021/09/19 07:48:10;;;;;;;;;24.33;24.33;23.30;42.70;;;;;;5034162;28;8847;-65
2021/09/19 07:50:37;;;;;;;;;23.00;23.00;23.30;43.20;;;;;;5050696;28;8791;-65
2021/09/19 07:53:03;;;;;;;;;23.33;23.33;23.30;43.00;;;;;;5025609;28;8801;-65
2021/09/19 07:55:31;;;;;;;;;21.33;21.33;23.40;43.10;;;;;;5016699;28;8812;-65
2021/09/19 07:57:57;;;;;;;;;24.33;24.33;23.60;42.70;;;;;;5027249;28;8808;-66
2021/09/19 08:00:23;;;;;;;;;23.00;23.00;23.60;42.40;;;;;;5016731;28;8804;-66
2021/09/19 08:02:48;;;;;;;;;25.33;25.33;23.70;42.90;;;;;;5014383;28;9592;-68
2021/09/19 08:05:15;;;;;;;;;24.00;24.00;23.80;41.90;;;;;;5014055;28;8824;-67
2021/09/19 08:07:42;;;;;;;;;21.00;21.00;23.70;41.50;;;;;;5013885;28;8795;-67
2021/09/19 08:10:08;;;;;;;;;17.00;17.00;23.70;40.50;;;;;;5014615;28;8776;-67
2021/09/19 08:12:34;;;;;;;;;19.67;19.67;23.80;40.80;;;;;;5014407;28;8792;-67
2021/09/19 08:15:00;;;;;;;;;19.67;19.67;23.80;40.60;;;;;;5014480;28;8861;-66
2021/09/19 08:17:26;;;;;;;;;23.00;23.00;24.00;40.50;;;;;;5014792;28;8826;-67
2021/09/19 08:19:51;;;;;;;;;18.00;17.33;24.10;40.20;;;;;;5022729;28;9443;-66
2021/09/19 08:22:17;;;;;;;;;20.33;20.33;24.20;40.10;;;;;;5041518;28;8774;-66
2021/09/19 08:24:43;;;;;;;;;19.33;19.33;24.10;40.40;;;;;;5041392;28;8798;-67
2021/09/19 08:27:09;;;;;;;;;22.33;22.33;24.20;40.00;;;;;;5034044;28;8786;-67
2021/09/19 08:29:35;;;;;;;;;21.00;21.00;24.20;40.30;;;;;;5034163;28;9451;-70
2021/09/19 08:32:02;;;;;;;;;23.00;23.00;24.40;39.80;;;;;;5034287;28;8877;-67
2021/09/19 08:34:28;;;;;;;;;20.00;20.00;24.50;39.70;;;;;;5033874;28;9517;-72
2021/09/19 08:36:54;;;;;;;;;20.67;20.67;24.50;39.70;;;;;;5034180;28;9431;-66
2021/09/19 08:39:20;;;;;;;;;18.33;18.33;24.50;39.60;;;;;;5032849;28;8785;-66
2021/09/19 08:41:49;;;;;;;;;17.00;17.00;24.60;39.40;;;;;;5033788;28;8812;-68
2021/09/19 08:44:19;;;;;;;;;18.00;17.00;24.70;39.20;;;;;;5053043;28;9677;-65
2021/09/19 08:46:46;;;;;;;;;19.67;19.67;24.70;38.70;;;;;;5044755;28;8961;-67
2021/09/19 08:49:13;;;;;;;;;16.67;16.67;24.80;38.60;;;;;;5040133;28;8813;-69
2021/09/19 08:51:39;;;;;;;;;15.67;15.67;24.90;38.80;;;;;;5053723;28;8783;-68
2021/09/19 08:54:05;;;;;;;;;16.00;16.00;25.00;37.80;;;;;;5048878;28;8775;-67
2021/09/19 08:56:31;;;;;;;;;13.00;13.00;25.00;37.20;;;;;;5040830;28;8897;-66
2021/09/19 08:58:57;;;;;;;;;10.00;10.00;25.00;36.50;;;;;;5048953;28;8793;-64
2021/09/19 09:01:23;;;;;;;;;10.67;10.67;25.00;37.10;;;;;;5040144;28;8813;-64
2021/09/19 09:03:49;;;;;;;;;11.33;11.33;25.10;36.30;;;;;;5039214;28;11552;-68
2021/09/19 09:06:19;;;;;;;;;13.33;13.33;25.10;36.00;;;;;;5043854;28;11567;-67
2021/09/19 09:08:44;;;;;;;;;12.00;12.00;25.20;35.60;;;;;;5036426;28;11501;-65
2021/09/19 09:11:11;;;;;;;;;12.67;12.67;25.50;35.90;;;;;;5050898;28;8872;-64
2021/09/19 09:13:40;;;;;;;;;14.33;14.33;25.50;35.10;;;;;;5053671;28;9452;-66
2021/09/19 09:16:17;;;;;;;;;15.67;15.67;25.50;34.40;;;;;;5048604;28;11532;-65
2021/09/19 09:18:52;;;;;;;;;13.67;13.67;25.60;35.00;;;;;;5048502;28;8777;-67
2021/09/19 09:21:20;;;;;;;;;19.00;19.00;25.60;35.00;;;;;;5045596;28;11643;-64
2021/09/19 09:23:49;;;;;;;;;14.67;14.67;25.80;35.40;;;;;;5050356;28;8830;-64
2021/09/19 09:26:34;;;;;;;;;15.33;15.33;25.80;34.80;;;;;;5048297;28;11589;-65
2021/09/19 09:29:09;;;;;;;;;13.67;13.67;25.70;34.90;;;;;;5051653;28;9523;-64
2021/09/19 09:31:47;;;;;;;;;13.67;13.67;25.60;34.90;;;;;;5042142;28;11525;-67
2021/09/19 09:34:19;;;;;;;;;14.00;14.00;25.70;34.50;;;;;;5055362;28;8810;-67
2021/09/19 09:36:59;;;;;;;;;13.00;13.00;25.80;34.60;;;;;;5053201;28;11569;-70
2021/09/19 09:39:37;;;;;;;;;14.00;14.00;25.90;34.20;;;;;;5040419;28;11507;-69
2021/09/19 09:42:07;;;;;;;;;18.67;18.67;26.00;33.90;;;;;;5037246;28;11525;-67
2021/09/19 09:44:34;;;;;;;;;15.00;15.00;26.10;34.30;;;;;;5041902;28;8793;-71
2021/09/19 09:47:03;;;;;;;;;19.67;19.67;26.10;34.30;;;;;;5042161;28;8905;-66
2021/09/19 09:49:40;;;;;;;;;19.33;19.33;26.20;33.80;;;;;;5044679;28;8801;-66
2021/09/19 09:52:21;;;;;;;;;15.67;15.67;26.30;34.20;;;;;;5043152;28;8839;-67
2021/09/19 09:54:53;;;;;;;;;15.00;15.00;26.50;33.70;;;;;;5041280;28;11615;-65
2021/09/19 09:57:35;;;;;;;;;14.00;14.00;26.60;33.40;;;;;;5034641;28;8806;-70
2021/09/19 10:00:13;;;;;;;;;10.00;10.00;26.80;33.30;;;;;;5035981;28;11512;-69
2021/09/19 10:02:44;;;;;;;;;13.33;13.33;27.00;32.70;;;;;;5035934;28;11539;-69
2021/09/19 10:05:12;;;;;;;;;14.00;14.00;27.30;32.60;;;;;;5035620;28;11727;-69
2021/09/19 10:07:40;;;;;;;;;14.67;14.67;27.50;31.60;;;;;;5035943;28;11525;-69
2021/09/19 10:10:09;;;;;;;;;12.00;12.00;27.70;31.70;;;;;;5034962;28;12308;-69
2021/09/19 10:12:35;;;;;;;;;12.33;12.33;27.80;30.70;;;;;;5040646;28;12198;-67
2021/09/19 10:15:05;;;;;;;;;17.00;17.00;28.00;30.40;;;;;;5045813;28;11605;-69
2021/09/19 10:17:31;;;;;;;;;13.67;13.67;28.20;30.60;;;;;;5041439;28;11503;-70
2021/09/19 10:19:58;;;;;;;;;13.00;13.00;28.50;30.20;;;;;;5044379;28;12303;-68
2021/09/19 10:22:34;;;;;;;;;14.00;14.00;28.60;29.60;;;;;;5055504;28;11594;-65
2021/09/19 10:25:00;;;;;;;;;13.75;13.75;28.90;29.50;;;;;;5042012;28;12208;-64
2021/09/19 10:27:34;;;;;;;;;13.25;13.25;28.90;29.00;;;;;;5042103;28;12163;-67
2021/09/19 10:30:11;;;;;;;;;10.25;10.25;29.30;28.60;;;;;;5049143;28;11572;-67
2021/09/19 10:32:46;;;;;;;;;12.25;12.25;29.40;28.40;;;;;;5055606;28;12224;-66
2021/09/19 10:35:18;;;;;;;;;13.75;13.75;29.80;27.90;;;;;;5055257;28;11494;-68
2021/09/19 10:38:00;;;;;;;;;16.75;16.75;30.20;27.80;;;;;;5047312;28;11639;-66
2021/09/19 10:40:42;;;;;;;;;13.00;13.00;30.40;26.60;;;;;;5045864;28;11640;-66
2021/09/19 10:43:19;;;;;;;;;12.00;12.00;30.70;27.20;;;;;;5045845;28;11533;-65
2021/09/19 10:45:50;;;;;;;;;11.25;11.25;30.90;26.80;;;;;;5038877;28;11507;-67
2021/09/19 10:48:28;;;;;;;;;10.50;10.50;31.10;26.60;;;;;;5039883;28;11509;-67
2021/09/19 10:51:05;;;;;;;;;12.25;12.25;31.30;25.50;;;;;;5052547;28;11490;-68
2021/09/19 10:53:31;;;;;;;;;9.25;9.25;31.50;26.10;;;;;;5051507;28;11498;-66
2021/09/19 10:56:03;;;;;;;;;11.25;11.25;31.70;24.90;;;;;;5035210;28;11543;-66
2021/09/19 10:58:34;;;;;;;;;13.50;13.50;31.90;25.10;;;;;;5053830;28;8783;-67
2021/09/19 11:01:06;;;;;;;;;10.50;10.50;32.20;24.20;;;;;;5053932;28;11581;-68
2021/09/19 11:03:31;;;;;;;;;5.00;5.00;32.20;23.80;;;;;;5041816;28;11532;-64
2021/09/19 11:05:57;;;;;;;;;8.50;8.50;32.10;23.60;;;;;;5054636;28;11448;-67
2021/09/19 11:08:23;;;;;;;;;12.25;12.25;31.90;23.60;;;;;;5054902;28;8893;-66
2021/09/19 11:10:49;;;;;;;;;8.25;8.25;32.10;23.40;;;;;;5055079;28;8793;-65
2021/09/19 11:13:20;;;;;;;;;9.75;9.75;32.40;23.60;;;;;;5055066;28;8854;-66
2021/09/19 11:16:06;;;;;;;;;12.75;12.75;32.60;23.10;;;;;;5048044;28;8798;-67
2021/09/19 11:18:40;;;;;;;;;11.00;11.00;33.00;23.00;;;;;;5049587;28;11482;-64
2021/09/19 11:21:19;;;;;;;;;11.25;11.25;33.00;22.70;;;;;;5044411;28;12059;-63
2021/09/19 11:23:48;;;;;;;;;7.75;7.75;32.70;22.80;;;;;;5042229;28;11528;-64
2021/09/19 11:26:20;;;;;;;;;9.00;9.00;32.70;22.80;;;;;;5039727;28;12163;-66
2021/09/19 11:28:47;;;;;;;;;11.00;11.00;32.80;22.60;;;;;;5043935;28;11550;-66
2021/09/19 11:31:17;;;;;;;;;9.75;9.75;33.40;23.00;;;;;;5033417;28;11487;-66
2021/09/19 11:33:43;;;;;;;;;9.75;9.75;33.60;22.40;;;;;;5046131;28;11503;-65
2021/09/19 11:36:12;;;;;;;;;10.00;10.00;34.10;22.70;;;;;;5053950;28;11450;-65
2021/09/19 11:38:46;;;;;;;;;9.75;9.75;34.30;21.60;;;;;;5037917;28;12139;-65
2021/09/19 11:41:13;;;;;;;;;10.75;10.75;34.60;21.70;;;;;;5039976;28;11465;-65
2021/09/19 11:43:41;;;;;;;;;10.50;10.50;35.00;21.80;;;;;;5034262;28;11525;-69
2021/09/19 11:46:09;;;;;;;;;8.00;8.00;35.50;21.00;;;;;;5044331;28;12205;-63
2021/09/19 11:48:35;;;;;;;;;8.75;8.75;35.40;20.20;;;;;;5037116;28;11561;-64
2021/09/19 11:51:02;;;;;;;;;9.25;9.25;35.50;20.20;;;;;;5054190;28;11431;-66
2021/09/19 11:53:28;;;;;;;;;9.00;9.00;35.50;20.00;;;;;;5050970;28;11445;-65
2021/09/19 11:55:55;;;;;;;;;9.00;9.00;37.00;19.00;;;;;;5032838;28;11462;-66
2021/09/19 11:58:21;;;;;;;;;4.25;4.25;40.70;16.90;;;;;;5033463;28;11465;-66
2021/09/19 12:00:55;;;;;;;;;9.50;9.50;44.40;15.10;;;;;;5034318;28;11449;-66
2021/09/19 12:03:22;;;;;;;;;7.00;7.00;47.00;13.50;;;;;;5034355;28;11526;-66
2021/09/19 12:05:53;;;;;;;;;7.50;7.50;48.90;12.40;;;;;;5034033;28;11491;-66
2021/09/19 12:08:20;;;;;;;;;6.50;6.50;51.20;11.70;;;;;;5037343;28;12198;-66
2021/09/19 12:10:50;;;;;;;;;9.00;9.00;53.20;10.80;;;;;;5053987;28;11440;-63
2021/09/19 12:13:23;;;;;;;;;7.00;7.00;54.50;10.00;;;;;;5053900;28;11475;-64
2021/09/19 12:16:19;;;;;;;;;7.50;7.50;54.90;9.50;;;;;;5053976;28;11411;-64
2021/09/19 12:18:48;;;;;;;;;7.50;7.50;55.80;9.30;;;;;;5033705;28;11560;-64
2021/09/19 12:21:18;;;;;;;;;7.25;7.25;55.80;9.00;;;;;;5034313;28;12298;-64
2021/09/19 12:23:53;;;;;;;;;7.50;7.50;56.00;9.10;;;;;;5033685;28;11485;-64
2021/09/19 12:26:24;;;;;;;;;6.75;6.75;56.00;9.00;;;;;;5033221;28;11452;-63
2021/09/19 12:28:53;;;;;;;;;6.50;6.50;56.90;9.10;;;;;;5034221;28;11468;-64
2021/09/19 12:31:42;;;;;;;;;8.00;8.00;57.40;8.70;;;;;;5033971;28;11479;-64
2021/09/19 12:34:20;;;;;;;;;8.00;8.00;57.50;8.50;;;;;;5034267;28;11580;-63
2021/09/19 12:36:51;;;;;;;;;6.25;6.25;57.50;9.40;;;;;;5032832;28;12609;-64
2021/09/19 12:39:23;;;;;;;;;7.50;7.50;57.60;8.40;;;;;;5033832;28;12146;-64
2021/09/19 12:41:51;;;;;;;;;6.75;6.75;57.90;8.40;;;;;;5034125;28;11443;-64